Time;durP1;ratioP1;P1;durP2;ratioP2;P2;SDS_P1;SDS_P2;PMS_P1;PMS_P2;Temp;Humidity;BMP_temperature;BMP_pressure;BME280_temperature;BME280_humidity;BME280_pressure;Samples;Min_cycle;Max_cycle;Signal;HPM_P1;HPM_P2
2022/07/19 00:01:21;;;;;;;3.50;3.10;;;23.90;36.10;;;22.00;37.82;101639.25;12237566;19;20472;-78
2022/07/19 00:05:23;;;;;;;5.82;2.88;;;23.70;36.10;;;21.78;37.96;101608.41;12242749;19;20015;-78
2022/07/19 00:09:26;;;;;;;3.00;2.50;;;23.70;36.40;;;21.76;38.00;101617.50;12235909;19;20053;-78
2022/07/19 00:13:27;;;;;;;3.60;3.03;;;23.60;36.50;;;21.68;38.13;101618.16;12241791;19;20014;-78
2022/07/19 00:17:29;;;;;;;4.15;2.58;;;23.50;36.60;;;21.58;38.47;101625.28;12241836;19;20021;-78
2022/07/19 00:21:31;;;;;;;3.80;3.03;;;23.40;36.70;;;21.51;38.58;101632.09;12230920;19;20019;-78
2022/07/19 00:25:32;;;;;;;3.83;2.97;;;23.20;36.80;;;21.30;38.44;101613.50;12243757;19;20019;-78
2022/07/19 00:29:34;;;;;;;3.53;2.83;;;23.10;37.00;;;21.32;38.72;101627.50;12236633;19;20357;-78
2022/07/19 00:33:36;;;;;;;3.65;2.97;;;23.00;37.00;;;21.28;38.90;101628.75;12241838;19;20010;-78
2022/07/19 00:37:38;;;;;;;3.22;2.78;;;22.90;37.00;;;21.10;39.10;101625.88;12240322;19;20014;-78
2022/07/19 00:41:42;;;;;;;3.92;2.80;;;22.80;37.10;;;21.00;38.94;101623.13;12238212;19;20503;-78
2022/07/19 00:45:44;;;;;;;3.92;2.80;;;22.90;37.40;;;20.87;38.92;101611.88;12239149;19;20414;-78
2022/07/19 00:49:45;;;;;;;3.40;2.67;;;22.60;37.40;;;20.88;39.45;101614.41;12240072;19;20035;-78
2022/07/19 00:53:48;;;;;;;4.90;2.85;;;22.70;37.60;;;20.90;39.45;101622.22;12240779;19;20480;-78
2022/07/19 00:57:50;;;;;;;3.90;3.33;;;22.50;37.60;;;20.97;39.67;101634.03;12241693;19;20020;-78
2022/07/19 01:01:52;;;;;;;3.28;2.85;;;22.50;37.80;;;20.91;39.66;101630.06;12241165;19;20014;-78
2022/07/19 01:05:54;;;;;;;3.85;3.03;;;22.70;38.00;;;20.88;39.24;101635.66;12230996;19;20445;-78
2022/07/19 01:09:56;;;;;;;3.85;3.13;;;22.50;37.90;;;20.56;39.34;101587.91;12233864;19;20019;-78
2022/07/19 01:13:58;;;;;;;3.75;3.13;;;22.50;37.80;;;20.78;39.59;101646.19;12234598;19;20019;-78
2022/07/19 01:18:00;;;;;;;3.33;3.03;;;22.50;37.90;;;20.54;39.83;101625.19;12240609;19;20356;-78
2022/07/19 01:22:02;;;;;;;5.03;3.83;;;22.40;37.90;;;20.55;39.76;101636.69;12237193;19;20017;-78
2022/07/19 01:26:04;;;;;;;3.75;2.55;;;22.30;37.70;;;20.47;39.97;101649.69;12240690;19;20018;-78
2022/07/19 01:30:26;;;;;;;3.90;2.95;;;22.20;37.70;;;20.31;40.28;101632.38;12241050;19;20019;-78
2022/07/19 01:34:28;;;;;;;4.75;3.17;;;22.10;37.80;;;20.37;39.95;101640.81;12241542;19;20022;-78
2022/07/19 01:38:30;;;;;;;3.53;2.83;;;22.10;37.80;;;20.21;40.01;101620.00;12235940;19;20007;-78
2022/07/19 01:42:31;;;;;;;4.40;2.83;;;22.00;37.80;;;20.21;40.14;101642.03;12235073;19;20011;-78
2022/07/19 01:46:33;;;;;;;3.30;3.00;;;21.90;37.90;;;20.17;40.11;101635.31;12235883;19;20011;-78
2022/07/19 01:50:35;;;;;;;3.45;2.83;;;21.90;38.00;;;20.04;40.24;101624.03;12237744;19;20021;-78
2022/07/19 01:54:37;;;;;;;4.13;2.70;;;21.80;38.00;;;20.00;40.44;101633.19;12239807;19;20010;-78
2022/07/19 01:58:38;;;;;;;4.90;2.75;;;21.80;38.10;;;19.57;40.64;101584.41;12233906;19;20013;-78
2022/07/19 02:02:40;;;;;;;4.55;3.15;;;21.70;38.10;;;19.83;40.33;101619.47;12236369;19;20414;-78
2022/07/19 02:06:42;;;;;;;3.08;2.70;;;21.60;38.30;;;19.71;40.73;101617.78;12237004;19;20035;-78
2022/07/19 02:10:44;;;;;;;4.00;3.22;;;21.90;38.50;;;19.76;40.60;101626.22;12238240;19;20014;-78
2022/07/19 02:14:45;;;;;;;4.55;3.25;;;21.50;38.40;;;19.48;40.74;101594.91;12239623;19;20014;-78
2022/07/19 02:18:47;;;;;;;2.88;2.60;;;21.50;38.40;;;19.65;40.98;101618.25;12234688;19;20022;-78
2022/07/19 02:22:49;;;;;;;3.95;3.10;;;21.40;38.40;;;19.59;40.91;101616.09;12243217;19;20019;-78
2022/07/19 02:26:51;;;;;;;3.22;2.92;;;21.40;38.50;;;19.57;41.16;101626.81;12253061;19;20025;-78
2022/07/19 02:30:53;;;;;;;5.57;3.20;;;21.30;38.50;;;19.33;40.96;101602.25;12247753;19;20018;-78
2022/07/19 02:34:55;;;;;;;4.57;3.28;;;21.20;38.60;;;19.43;41.00;101625.25;12251977;19;20469;-78
2022/07/19 02:38:58;;;;;;;3.28;2.97;;;21.20;38.70;;;19.18;41.06;101589.25;12242732;19;20018;-78
2022/07/19 02:43:00;;;;;;;3.30;2.80;;;21.10;38.70;;;19.30;41.08;101624.50;12247062;19;20034;-78
2022/07/19 02:47:01;;;;;;;4.03;2.95;;;21.00;38.90;;;19.26;41.12;101624.88;12247438;19;20039;-78
2022/07/19 02:51:04;;;;;;;3.58;2.83;;;21.10;38.90;;;18.96;41.24;101578.63;12246277;19;20476;-78
2022/07/19 02:55:06;;;;;;;3.75;2.92;;;21.00;39.00;;;19.08;41.50;101598.03;12241377;19;20624;-78
2022/07/19 02:59:08;;;;;;;3.50;2.92;;;20.90;39.00;;;19.01;41.56;101606.44;12243731;19;20019;-78
2022/07/19 03:07:30;;;;;;;3.17;2.75;;;20.80;39.20;;;19.01;41.92;101624.97;12247928;19;20472;-78
2022/07/19 03:11:32;;;;;;;6.15;2.72;;;20.80;39.20;;;18.90;41.75;101617.00;12242107;19;20011;-78
2022/07/19 03:15:36;;;;;;;3.72;2.88;;;20.90;39.50;;;18.88;42.00;101629.50;12247726;19;20500;-78
2022/07/19 03:19:37;;;;;;;3.80;3.13;;;20.60;39.50;;;18.85;41.89;101624.47;12241124;19;20018;-77
2022/07/19 03:23:39;;;;;;;8.60;3.03;;;20.60;39.60;;;18.76;42.14;101614.56;12246964;19;20363;-77
2022/07/19 03:27:41;;;;;;;3.78;3.25;;;20.50;39.70;;;18.74;42.04;101619.06;12246143;19;20021;-77
2022/07/19 03:31:43;;;;;;;4.32;3.25;;;20.50;39.70;;;18.73;42.22;101620.88;12240626;19;20022;-77
2022/07/19 03:35:46;;;;;;;4.65;3.10;;;20.80;39.90;;;18.71;42.53;101619.31;12245249;19;20014;-76
2022/07/19 03:39:47;;;;;;;5.05;3.00;;;20.70;40.10;;;18.68;42.59;101624.84;12241332;19;20015;-76
2022/07/19 03:43:49;;;;;;;4.55;2.90;;;20.40;40.00;;;18.56;42.61;101608.94;12244189;19;20518;-76
2022/07/19 03:47:51;;;;;;;5.82;3.13;;;20.30;40.10;;;18.51;42.64;101611.06;12245647;19;20018;-76
2022/07/19 03:51:53;;;;;;;5.10;3.28;;;20.30;40.10;;;18.52;42.77;101618.06;12240837;19;20021;-77
2022/07/19 03:55:54;;;;;;;4.75;2.55;;;20.30;40.20;;;18.51;42.92;101626.09;12244709;19;20045;-79
2022/07/19 03:59:56;;;;;;;3.70;2.58;;;20.30;40.20;;;18.44;42.68;101612.47;12240524;19;20018;-77
2022/07/19 04:03:59;;;;;;;4.53;3.38;;;20.30;40.20;;;18.43;42.91;101610.78;12241217;19;20014;-76
2022/07/19 04:08:00;;;;;;;4.25;3.03;;;20.20;40.40;;;18.29;43.20;101585.38;12243875;19;20010;-76
2022/07/19 04:12:02;;;;;;;6.10;3.45;;;20.30;40.50;;;18.30;43.08;101592.34;12226295;19;20014;-77
2022/07/19 04:16:05;;;;;;;5.18;3.13;;;20.20;40.60;;;18.43;43.05;101609.97;12228856;19;20029;-77
2022/07/19 04:20:07;;;;;;;5.13;2.80;;;20.20;40.70;;;18.32;43.39;101594.88;12235072;19;20022;-77
2022/07/19 04:24:09;;;;;;;3.85;2.83;;;20.20;40.70;;;18.48;43.40;101616.59;12237208;19;20018;-77
2022/07/19 04:28:10;;;;;;;3.45;2.90;;;20.20;40.80;;;18.40;43.28;101594.31;12235410;19;20049;-77
2022/07/19 04:32:12;;;;;;;4.47;2.80;;;20.60;41.10;;;18.40;43.53;101600.44;12235125;19;20015;-77
2022/07/19 04:36:14;;;;;;;6.53;3.42;;;20.20;41.10;;;18.38;43.62;101599.72;12239222;19;20583;-78
2022/07/19 04:40:15;;;;;;;3.78;3.40;;;20.30;41.10;;;18.28;43.77;101580.19;12229531;19;20504;-79
2022/07/19 04:44:17;;;;;;;3.55;3.10;;;20.30;41.20;;;18.48;43.79;101621.88;12226991;19;20014;-78
2022/07/19 04:48:19;;;;;;;5.53;3.53;;;20.60;41.20;;;18.44;43.74;101607.19;12223114;19;20495;-77
2022/07/19 04:52:21;;;;;;;4.28;3.30;;;20.30;41.20;;;18.60;43.77;101629.84;12232141;19;20354;-77
2022/07/19 04:56:22;;;;;;;3.17;2.88;;;20.40;41.40;;;18.70;43.98;101636.16;12228531;19;20022;-77
2022/07/19 05:00:24;;;;;;;6.05;3.20;;;20.40;41.30;;;18.66;43.89;101624.09;12235084;19;20407;-78
2022/07/19 05:04:26;;;;;;;4.35;3.08;;;20.50;41.60;;;18.86;44.16;101630.59;12236165;19;20028;-78
2022/07/19 05:08:27;;;;;;;3.08;2.65;;;20.50;41.70;;;18.85;44.18;101608.56;12236180;19;20030;-77
2022/07/19 05:12:30;;;;;;;4.00;3.03;;;20.90;42.00;;;19.11;44.46;101627.75;12232545;19;20038;-77
2022/07/19 05:16:32;;;;;;;3.55;3.25;;;20.70;41.90;;;19.24;44.05;101623.19;12211404;19;20099;-77
2022/07/19 05:20:34;;;;;;;3.20;2.90;;;20.80;42.00;;;19.40;44.38;101636.09;12228591;19;20022;-77
2022/07/19 05:24:35;;;;;;;3.90;3.17;;;21.00;42.30;;;19.47;44.42;101631.16;12234514;19;20491;-77
2022/07/19 05:28:37;;;;;;;4.50;3.33;;;21.10;42.30;;;19.62;44.40;101637.06;12230259;19;20018;-77
2022/07/19 05:32:39;;;;;;;3.58;3.17;;;21.20;42.40;;;19.62;44.71;101605.25;12232712;19;20014;-77
2022/07/19 05:36:41;;;;;;;19.40;4.20;;;21.30;42.50;;;19.88;44.87;101619.94;12232428;19;20018;-77
2022/07/19 05:40:43;;;;;;;3.63;2.92;;;21.50;42.60;;;20.07;44.77;101632.56;12231323;19;20018;-77
2022/07/19 05:44:45;;;;;;;4.95;2.88;;;21.60;42.60;;;20.30;44.95;101641.28;12235584;19;20018;-76
2022/07/19 05:48:48;;;;;;;5.90;3.28;;;21.80;42.90;;;20.57;44.45;101636.53;12231736;19;20006;-77
2022/07/19 05:52:50;;;;;;;4.95;2.58;;;21.90;42.70;;;20.95;44.81;101642.13;12229239;19;20014;-76
2022/07/19 05:56:52;;;;;;;9.13;3.05;;;22.20;43.20;;;21.29;44.60;101627.78;12241483;19;20014;-78
2022/07/19 06:05:14;;;;;;;4.70;2.20;;;22.90;42.20;;;22.09;44.22;101643.75;12244584;19;20885;-76
2022/07/19 06:09:16;;;;;;;3.08;2.80;;;23.30;42.00;;;22.45;43.86;101638.78;12245623;19;20086;-76
2022/07/19 06:13:18;;;;;;;3.08;2.78;;;23.60;41.80;;;22.81;43.35;101635.53;12243935;19;20337;-77
2022/07/19 06:17:20;;;;;;;3.08;2.25;;;23.90;41.40;;;23.07;43.08;101628.66;12242786;19;20511;-76
2022/07/19 06:21:22;;;;;;;3.53;2.38;;;24.30;40.80;;;23.50;43.05;101640.56;12240977;19;20730;-76
2022/07/19 06:25:24;;;;;;;7.45;2.53;;;24.70;40.50;;;23.74;42.66;101637.41;12244304;19;20038;-76
2022/07/19 06:29:25;;;;;;;4.57;2.60;;;25.00;40.30;;;23.95;42.47;101628.28;12243209;19;20078;-77
2022/07/19 06:33:27;;;;;;;3.38;2.22;;;25.50;40.50;;;24.19;42.50;101625.03;12241563;19;20010;-77
2022/07/19 06:37:29;;;;;;;4.03;2.30;;;25.50;39.50;;;24.34;42.40;101620.00;12240301;19;20090;-79
2022/07/19 06:41:30;;;;;;;2.50;2.30;;;25.80;39.50;;;24.62;42.19;101631.47;12236543;19;20018;-77
2022/07/19 06:45:32;;;;;;;4.20;2.25;;;25.90;39.30;;;24.78;41.98;101630.75;12242343;19;20014;-77
2022/07/19 06:49:34;;;;;;;11.95;2.83;;;26.10;38.80;;;24.94;41.83;101642.38;12236849;19;20027;-77
2022/07/19 06:53:36;;;;;;;3.15;2.78;;;26.30;39.30;;;24.89;42.15;101623.31;12241677;19;20023;-78
2022/07/19 06:57:38;;;;;;;3.42;2.90;;;26.60;39.50;;;25.16;41.57;101637.53;12237523;19;20018;-77
2022/07/19 07:01:40;;;;;;;4.55;3.10;;;26.60;39.40;;;25.25;41.56;101639.28;12233914;19;20038;-77
2022/07/19 07:05:41;;;;;;;3.63;3.33;;;26.90;39.40;;;25.47;41.79;101645.91;12243646;19;20492;-77
2022/07/19 07:09:43;;;;;;;3.42;2.97;;;26.90;39.00;;;25.57;41.50;101643.97;12239579;19;20010;-78
2022/07/19 07:13:45;;;;;;;2.90;2.70;;;27.10;39.00;;;25.66;41.10;101636.81;12244630;19;20032;-77
2022/07/19 07:17:47;;;;;;;2.90;2.50;;;27.20;38.60;;;25.81;40.99;101639.69;12237790;19;20025;-80
2022/07/19 07:21:48;;;;;;;2.63;2.40;;;27.30;38.40;;;25.99;40.87;101640.44;12239549;19;20070;-78
2022/07/19 07:25:53;;;;;;;5.93;2.80;;;27.60;38.30;;;26.24;40.87;101646.69;12239687;19;20081;-77
2022/07/19 07:29:55;;;;;;;2.55;2.28;;;27.60;38.40;;;26.48;40.27;101647.72;12241675;19;20018;-78
2022/07/19 07:33:56;;;;;;;6.88;3.00;;;27.80;38.00;;;26.72;40.01;101640.72;12223762;19;20108;-78
2022/07/19 07:37:58;;;;;;;3.50;2.65;;;28.10;37.80;;;26.96;39.77;101639.88;12228191;19;20018;-78
2022/07/19 07:42:00;;;;;;;2.53;2.33;;;28.40;37.60;;;27.12;39.54;101623.75;12238792;19;20480;-77
2022/07/19 07:46:02;;;;;;;2.75;2.30;;;28.40;36.90;;;27.42;39.14;101645.47;12237998;19;20018;-77
2022/07/19 07:50:06;;;;;;;8.63;2.47;;;28.60;36.30;;;27.64;38.48;101639.34;12239923;19;20476;-77
2022/07/19 07:54:08;;;;;;;4.63;1.83;;;28.90;36.20;;;27.94;38.62;101640.38;12237531;19;20015;-77
2022/07/19 07:58:11;;;;;;;2.92;2.03;;;29.10;36.20;;;28.14;38.45;101632.72;12237229;19;20028;-78
2022/07/19 08:02:13;;;;;;;3.22;2.45;;;29.50;36.30;;;28.46;37.96;101633.50;12234621;19;20026;-78
2022/07/19 08:06:15;;;;;;;2.13;1.92;;;29.60;36.00;;;28.68;37.49;101624.59;12222134;19;20014;-78
2022/07/19 08:10:17;;;;;;;9.00;1.90;;;29.90;35.80;;;28.94;37.59;101636.78;12229689;19;20010;-78
2022/07/19 08:14:18;;;;;;;2.03;1.55;;;30.10;35.60;;;29.22;37.30;101639.72;12230447;19;20010;-77
2022/07/19 08:18:20;;;;;;;4.55;2.10;;;30.40;35.30;;;29.38;36.99;101627.94;12229273;19;20015;-78
2022/07/19 08:22:22;;;;;;;6.57;2.13;;;30.60;35.20;;;29.69;36.86;101640.34;12225739;19;20015;-78
2022/07/19 08:26:23;;;;;;;3.80;1.77;;;31.10;35.40;;;29.94;36.77;101641.66;12232076;19;20007;-78
2022/07/19 08:30:25;;;;;;;2.00;1.90;;;31.10;35.30;;;30.01;36.55;101622.06;12227687;19;20101;-78
2022/07/19 08:34:27;;;;;;;5.28;2.55;;;31.30;34.40;;;30.28;36.00;101639.38;12230571;19;20011;-78
2022/07/19 08:38:29;;;;;;;1.85;1.75;;;31.70;34.40;;;30.45;35.92;101624.59;12225972;19;20657;-77
2022/07/19 08:42:31;;;;;;;1.70;1.58;;;31.80;33.60;;;30.75;35.24;101640.59;12214643;19;20035;-78
2022/07/19 08:46:33;;;;;;;3.00;1.63;;;32.00;33.40;;;30.92;34.68;101627.66;12227901;19;20571;-78
2022/07/19 08:50:35;;;;;;;11.52;2.70;;;32.20;33.20;;;31.16;34.58;101642.56;12225901;19;20014;-78
2022/07/19 08:54:37;;;;;;;2.55;1.30;;;32.30;32.80;;;31.33;33.92;101622.31;12228202;19;20442;-78
2022/07/19 08:58:39;;;;;;;3.30;1.70;;;32.60;32.80;;;31.56;34.31;101619.31;12226377;19;20677;-78
2022/07/19 09:03:02;;;;;;;2.15;1.60;;;32.80;33.20;;;31.88;33.43;101619.63;12229786;19;20035;-78
2022/07/19 09:07:03;;;;;;;3.72;1.35;;;33.00;33.10;;;32.09;33.59;101619.50;12229288;19;20035;-79
2022/07/19 09:11:14;;;;;;;1.98;1.17;;;33.30;32.40;;;32.24;32.88;101610.38;12226925;19;20361;-79
2022/07/19 09:15:15;;;;;;;10.85;1.80;;;33.50;31.80;;;32.44;32.43;101624.75;12226218;19;20376;-77
2022/07/19 09:19:19;;;;;;;2.55;1.52;;;33.70;31.80;;;32.60;32.33;101618.13;12223307;19;20014;-77
2022/07/19 09:23:21;;;;;;;3.78;1.27;;;33.80;31.50;;;32.78;31.99;101625.56;12226525;19;20035;-78
2022/07/19 09:27:25;;;;;;;2.35;1.38;;;34.00;31.40;;;32.83;32.11;101601.41;12227354;19;20034;-78
2022/07/19 09:31:27;;;;;;;1.65;1.40;;;34.10;31.50;;;33.00;31.55;101605.38;12223489;19;20018;-78
2022/07/19 09:35:47;;;;;;;4.63;1.55;;;34.30;30.90;;;33.16;31.14;101606.81;12228038;19;20590;-78
2022/07/19 09:39:57;;;;;;;2.03;1.70;;;34.40;31.00;;;33.32;30.74;101610.88;12223212;19;20017;-78
2022/07/19 09:44:03;;;;;;;1.73;1.60;;;34.50;30.30;;;33.39;30.64;101611.69;12224312;19;20018;-77
2022/07/19 09:48:04;;;;;;;1.83;1.30;;;34.60;30.30;;;33.37;30.07;101596.72;12227034;19;20014;-78
2022/07/19 09:52:07;;;;;;;2.42;1.50;;;34.70;30.10;;;33.46;30.18;101590.03;12221458;19;20022;-78
2022/07/19 09:56:10;;;;;;;1.67;1.40;;;34.90;30.30;;;33.70;30.24;101605.56;12223456;19;20021;-77
2022/07/19 10:00:15;;;;;;;3.60;1.35;;;35.20;30.60;;;33.93;29.54;101598.75;12218103;19;20018;-77
2022/07/19 10:04:21;;;;;;;1.50;1.40;;;35.10;30.00;;;34.06;29.10;101595.16;12232175;19;20018;-78
2022/07/19 10:08:23;;;;;;;1.70;1.60;;;35.30;29.70;;;34.15;29.37;101601.94;12229548;19;20082;-78
2022/07/19 10:12:24;;;;;;;6.53;1.52;;;35.40;29.80;;;34.19;28.96;101584.19;12228375;19;20006;-77
2022/07/19 10:16:53;;;;;;;2.03;1.30;;;35.40;29.90;;;34.40;28.95;101590.28;12231658;19;20030;-79
2022/07/19 10:20:55;;;;;;;2.25;1.80;;;35.60;29.70;;;34.42;28.86;101580.03;12231457;19;20019;-79
2022/07/19 10:24:59;;;;;;;3.55;1.80;;;35.60;29.40;;;34.52;28.26;101574.94;12231985;19;20066;-80
2022/07/19 10:29:16;;;;;;;1.58;1.48;;;35.70;29.30;;;34.67;28.37;101570.00;12230645;19;20026;-77
2022/07/19 10:33:37;;;;;;;1.13;1.10;;;35.80;29.40;;;34.75;27.82;101556.13;12230719;19;20019;-78
2022/07/19 10:37:45;;;;;;;1.27;1.17;;;35.90;29.10;;;34.85;27.40;101554.78;12228018;19;20011;-79
2022/07/19 10:42:13;;;;;;;1.48;1.38;;;36.10;28.90;;;35.02;27.81;101566.69;12234925;19;20043;-77
2022/07/19 10:46:15;;;;;;;1.98;1.50;;;36.20;29.70;;;35.11;27.57;101565.38;12244442;19;20021;-78
2022/07/19 10:50:21;;;;;;;3.60;1.50;;;36.30;28.60;;;35.18;27.16;101557.97;12243149;19;20550;-78
2022/07/19 10:54:22;;;;;;;2.47;1.40;;;36.30;28.70;;;35.29;26.82;101555.53;12240765;19;20102;-79
2022/07/19 10:58:45;;;;;;;2.83;1.30;;;36.50;28.60;;;35.32;26.96;101536.06;12241186;19;20471;-78
2022/07/19 11:02:50;;;;;;;2.50;1.25;;;36.60;28.80;;;35.52;26.67;101543.97;12236472;19;20369;-79
2022/07/19 11:07:10;;;;;;;1.45;1.08;;;36.70;28.40;;;35.50;26.17;101519.72;12240896;19;20022;-78
2022/07/19 11:11:17;;;;;;;2.30;1.40;;;36.80;28.50;;;35.74;25.93;101539.66;12237238;19;20030;-78
2022/07/19 11:15:19;;;;;;;1.55;1.45;;;36.90;28.10;;;35.70;25.83;101507.75;12240321;19;20018;-78
2022/07/19 11:19:21;;;;;;;1.58;1.25;;;37.00;28.20;;;35.86;25.98;101517.94;12238859;19;20480;-78
2022/07/19 11:23:22;;;;;;;1.80;1.40;;;37.10;28.30;;;35.96;25.98;101512.75;12241206;19;20022;-78
2022/07/19 11:27:24;;;;;;;3.60;1.38;;;37.20;28.20;;;36.03;25.68;101516.19;12242037;19;20471;-79
2022/07/19 11:31:26;;;;;;;1.42;1.25;;;37.20;27.80;;;36.13;25.48;101512.91;12236249;19;20022;-79
2022/07/19 11:35:29;;;;;;;3.17;1.20;;;37.30;27.90;;;36.28;25.06;101509.72;12241140;19;20488;-78
2022/07/19 11:39:48;;;;;;;2.15;1.05;;;37.40;27.80;;;36.36;24.43;101508.56;12217167;19;20020;-79
2022/07/19 11:44:11;;;;;;;1.50;1.40;;;37.50;27.60;;;36.42;24.49;101502.16;12237270;19;20378;-79
2022/07/19 11:48:25;;;;;;;1.45;1.30;;;37.60;27.50;;;36.35;24.22;101485.97;12237982;19;20107;-79
2022/07/19 11:52:27;;;;;;;5.50;1.13;;;37.60;27.70;;;36.55;24.59;101518.25;12235534;19;20014;-79
2022/07/19 11:56:32;;;;;;;2.08;1.38;;;37.70;27.40;;;36.64;24.18;101516.00;12239552;19;20011;-79
2022/07/19 12:00:35;;;;;;;1.35;1.25;;;37.80;27.30;;;36.71;23.99;101524.88;12232579;19;20042;-79
2022/07/19 12:04:37;;;;;;;2.75;1.20;;;37.90;27.30;;;36.59;23.56;101499.53;12237632;19;20090;-79
2022/07/19 12:08:44;;;;;;;9.27;2.17;;;37.80;27.10;;;36.66;23.20;101509.25;12232524;19;20034;-79
2022/07/19 12:12:45;;;;;;;2.45;1.42;;;37.80;27.00;;;36.62;23.16;101496.34;12234860;19;20017;-79
2022/07/19 12:16:49;;;;;;;1.70;1.60;;;37.80;27.10;;;36.74;23.19;101506.16;12237557;19;20018;-79
2022/07/19 12:21:20;;;;;;;2.35;1.90;;;37.90;26.80;;;36.74;23.11;101503.44;12234688;19;20019;-79
2022/07/19 12:25:38;;;;;;;1.85;1.70;;;37.90;26.80;;;36.67;22.24;101496.44;12235908;19;20082;-78
2022/07/19 12:29:49;;;;;;;2.85;1.90;;;37.90;26.00;;;36.57;22.70;101488.09;12236537;19;20018;-79
2022/07/19 12:34:02;;;;;;;2.65;1.58;;;37.90;26.30;;;36.60;22.25;101495.78;12233948;19;20078;-78
2022/07/19 12:38:04;;;;;;;1.70;1.55;;;37.90;26.10;;;36.29;22.75;101446.91;12236015;19;20496;-79
2022/07/19 12:42:06;;;;;;;2.28;1.90;;;37.80;26.60;;;36.68;22.60;101493.50;12230678;19;20082;-79
2022/07/19 12:46:08;;;;;;;2.35;1.70;;;37.80;26.60;;;36.75;22.38;101483.31;12236574;19;20035;-79
2022/07/19 12:50:22;;;;;;;1.70;1.60;;;37.80;26.50;;;36.84;21.84;101475.59;12231927;19;20042;-79
2022/07/19 12:54:24;;;;;;;1.67;1.58;;;37.90;26.70;;;36.89;22.30;101478.41;12234966;19;20048;-78
2022/07/19 13:02:49;;;;;;;2.28;2.08;;;38.00;26.40;;;36.85;21.89;101455.44;12233637;19;20021;-79
2022/07/19 13:06:50;;;;;;;4.20;1.73;;;38.00;26.30;;;36.98;21.83;101470.69;12231758;19;20097;-78
2022/07/19 13:10:55;;;;;;;2.10;1.75;;;38.00;26.30;;;37.06;21.66;101473.06;12232231;19;20098;-78
2022/07/19 13:14:56;;;;;;;2.08;1.67;;;38.00;26.30;;;37.09;21.38;101466.28;12232513;19;20046;-78
2022/07/19 13:18:58;;;;;;;3.85;1.67;;;38.10;26.10;;;37.11;21.83;101466.88;12233277;19;20017;-78
2022/07/19 13:22:59;;;;;;;2.20;2.00;;;38.10;26.20;;;37.20;21.29;101459.94;12217151;19;20006;-78
2022/07/19 13:27:01;;;;;;;2.08;1.65;;;38.20;25.90;;;37.27;21.47;101468.81;12227897;19;20018;-79
2022/07/19 13:31:05;;;;;;;1.90;1.80;;;38.30;26.00;;;37.26;20.87;101463.59;12225028;19;20027;-78
2022/07/19 13:35:08;;;;;;;;;;;38.30;25.90;;;37.30;21.66;101457.41;12231274;19;20011;-78
2022/07/19 13:39:10;;;;;;;;;;;38.30;27.00;;;37.35;22.30;101464.88;12228103;19;20633;-78
2022/07/19 13:43:13;;;;;;;;;;;38.50;27.10;;;37.30;22.92;101457.41;12226958;19;19933;-78
2022/07/19 13:47:18;;;;;;;;;;;38.50;26.90;;;37.31;22.92;101448.16;12221078;19;19914;-78
2022/07/19 13:51:22;;;;;;;;;;;38.50;27.60;;;37.35;22.77;101433.00;12253595;19;19919;-78
2022/07/19 13:55:23;;;;;;;;;;;38.60;26.60;;;37.40;23.04;101424.06;12204882;19;19918;-78
2022/07/19 13:59:26;;;;;;;;;;;38.60;27.50;;;37.54;22.90;101433.59;12214423;19;19918;-78
2022/07/19 14:03:27;;;;;;;;;;;38.70;27.50;;;37.67;23.20;101435.16;12215160;19;20650;-78
2022/07/19 14:07:29;;;;;;;;;;;38.70;27.50;;;37.76;22.95;101425.50;12219089;19;19921;-78
2022/07/19 14:11:30;;;;;;;;;;;38.90;27.80;;;37.88;23.08;101436.28;12213982;19;19943;-78
2022/07/19 14:15:32;;;;;;;;;;;38.90;27.40;;;37.91;22.76;101435.78;12218690;19;19919;-78
2022/07/19 14:19:35;;;;;;;;;;;39.00;27.60;;;37.93;22.89;101430.09;12225046;19;20341;-78
2022/07/19 14:23:36;;;;;;;;;;;39.10;27.70;;;37.99;23.29;101426.41;12230302;19;19919;-78
2022/07/19 14:27:38;;;;;;;;;;;39.10;27.60;;;38.00;23.17;101414.44;12229148;19;20237;-78
2022/07/19 14:31:40;;;;;;;;;;;39.20;27.40;;;38.08;22.88;101427.63;12226859;19;19918;-78
2022/07/19 14:35:42;;;;;;;;;;;39.30;27.40;;;38.05;23.07;101419.94;12227341;19;19919;-78
2022/07/19 14:39:43;;;;;;;;;;;39.20;27.50;;;38.01;22.68;101416.88;12226011;19;19925;-78
2022/07/19 14:43:45;;;;;;;;;;;39.20;27.60;;;38.02;23.20;101417.69;12221637;19;19915;-78
2022/07/19 14:47:46;;;;;;;;;;;39.20;27.60;;;38.00;22.94;101417.16;12218682;19;19993;-77
2022/07/19 14:51:48;;;;;;;;;;;39.20;27.90;;;37.99;23.02;101412.75;12222071;19;19922;-77
2022/07/19 14:55:50;;;;;;;;;;;39.20;27.50;;;38.00;23.05;101417.16;12224477;19;20254;-78
2022/07/19 14:59:51;;;;;;;;;;;39.20;27.70;;;38.02;23.06;101412.25;12222356;19;19923;-77
2022/07/19 15:03:53;;;;;;;;;;;39.20;27.50;;;38.00;23.05;101415.25;12224777;19;19946;-77
2022/07/19 15:07:54;;;;;;;;;;;39.20;27.50;;;37.81;23.11;101372.94;12226394;19;19986;-77
2022/07/19 15:11:59;;;;;;;;;;;39.20;27.50;;;38.07;22.76;101415.88;12221498;19;19927;-77
2022/07/19 15:16:00;;;;;;;;;;;39.20;27.40;;;38.05;23.05;101411.75;12218621;19;20376;-77
2022/07/19 15:20:02;;;;;;;;;;;39.20;27.00;;;38.03;22.86;101405.75;12219565;19;20236;-77
2022/07/19 15:24:04;;;;;;;;;;;39.20;27.40;;;38.09;22.96;101399.25;12221624;19;19918;-76
2022/07/19 15:28:06;;;;;;;;;;;39.20;27.40;;;38.13;22.79;101399.56;12224113;19;19918;-77
2022/07/19 15:32:09;;;;;;;;;;;39.20;27.40;;;38.11;23.01;101397.13;12219586;19;20877;-81
2022/07/19 15:36:13;;;;;;;;;;;39.30;27.20;;;38.11;23.03;101394.38;12222249;19;19919;-78
2022/07/19 15:40:15;;;;;;;;;;;39.30;27.40;;;38.17;22.48;101395.28;12222554;19;19939;-78
2022/07/19 15:44:16;;;;;;;;;;;39.30;27.50;;;38.11;22.75;101388.13;12225200;19;19935;-77
2022/07/19 15:48:18;;;;;;;;;;;39.30;27.00;;;37.97;22.92;101379.44;12217948;19;20733;-77
2022/07/19 15:52:19;;;;;;;;;;;39.20;27.20;;;38.00;22.61;101390.69;12216387;19;19922;-77
2022/07/19 15:56:21;;;;;;;;;;;39.20;27.30;;;37.97;22.72;101391.19;12219910;19;19922;-77
2022/07/19 16:00:22;;;;;;;;;;;39.20;27.30;;;37.98;22.43;101378.38;12193974;19;19914;-78
2022/07/19 16:04:24;;;;;;;;;;;39.10;27.20;;;37.92;22.46;101379.38;12211388;19;19923;-77
2022/07/19 16:08:25;;;;;;;;;;;39.10;27.00;;;37.79;22.54;101364.19;12224143;19;19926;-78
2022/07/19 16:12:27;;;;;;;;;;;39.10;27.10;;;37.85;22.36;101382.25;12221984;19;19922;-78
2022/07/19 16:16:28;;;;;;;;;;;39.00;27.00;;;37.80;22.53;101371.28;12228505;19;19926;-77
2022/07/19 16:20:30;;;;;;;;;;;39.00;27.00;;;37.77;22.55;101363.59;12218911;19;19943;-77
2022/07/19 16:24:31;;;;;;;;;;;39.00;27.40;;;37.77;22.63;101378.06;12225626;19;19922;-78
2022/07/19 16:28:32;;;;;;;;;;;38.90;27.20;;;37.29;22.59;101300.44;12223769;19;19949;-77
2022/07/19 16:32:34;;;;;;;;;;;38.90;27.10;;;37.64;22.67;101349.22;12221034;19;19919;-77
2022/07/19 16:36:35;;;;;;;;;;;38.90;27.20;;;37.65;22.73;101352.81;12222620;19;19921;-77
2022/07/19 16:40:37;;;;;;;;;;;38.90;27.30;;;37.71;22.42;101365.44;12216846;19;19965;-76
2022/07/19 16:44:38;;;;;;;;;;;38.80;27.30;;;37.63;22.68;101363.13;12223515;19;19919;-77
2022/07/19 16:48:40;;;;;;;;;;;38.80;27.30;;;37.56;22.82;101367.91;12219684;19;19926;-77
2022/07/19 16:52:41;;;;;;;;;;;38.70;27.00;;;37.55;22.49;101369.81;12219296;19;20257;-79
2022/07/19 16:56:42;;;;;;;;;;;38.70;27.10;;;37.49;22.23;101361.81;12221082;19;19918;-78
2022/07/19 17:00:44;;;;;;;;;;;38.70;27.30;;;37.38;22.41;101358.91;12215599;19;19918;-76
2022/07/19 17:04:45;;;;;;;;;;;38.60;27.20;;;37.41;22.57;101363.03;12216944;19;19929;-77
2022/07/19 17:08:46;;;;;;;;;;;38.60;27.20;;;37.37;22.38;101359.97;12220907;19;20327;-78
2022/07/19 17:12:48;;;;;;;;;;;38.50;27.20;;;37.34;22.11;101362.38;12217070;19;19922;-77